Time;durP1;ratioP1;P1;durP2;ratioP2;P2;SDS_P1;SDS_P2;PMS_P1;PMS_P2;Temp;Humidity;BMP_temperature;BMP_pressure;BME280_temperature;BME280_humidity;BME280_pressure;Samples;Min_cycle;Max_cycle;Signal;HPM_P1;HPM_P2
2022/04/15 00:01:43;;;;;;;0.10;0.10;;;;;;;;;;5131733;28;20034;-75
2022/04/15 00:04:09;;;;;;;0.10;0.10;;;;;;;;;;5131926;27;20034;-75
2022/04/15 00:06:35;;;;;;;0.10;0.10;;;;;;;;;;5113268;28;20390;-75
2022/04/15 00:09:01;;;;;;;0.10;0.10;;;;;;;;;;5131930;27;20027;-75
2022/04/15 00:11:29;;;;;;;0.10;0.10;;;;;;;;;;5131617;28;20076;-75
2022/04/15 00:13:55;;;;;;;0.10;0.10;;;;;;;;;;5133629;27;20033;-75
2022/04/15 00:16:21;;;;;;;0.10;0.10;;;;;;;;;;5135710;27;20019;-75
2022/04/15 00:18:47;;;;;;;0.00;0.00;;;;;;;;;;5117832;27;20023;-75
2022/04/15 00:21:13;;;;;;;0.10;0.10;;;;;;;;;;5136376;27;20031;-75
2022/04/15 00:23:39;;;;;;;0.10;0.10;;;;;;;;;;5117181;27;20512;-75
2022/04/15 00:26:06;;;;;;;0.10;0.10;;;;;;;;;;5135728;27;20027;-75
2022/04/15 00:28:32;;;;;;;0.10;0.10;;;;;;;;;;5135507;27;20039;-75
2022/04/15 00:30:58;;;;;;;0.10;0.10;;;;;;;;;;5117268;27;20031;-75
2022/04/15 00:33:24;;;;;;;0.10;0.10;;;;;;;;;;5135389;27;20019;-75
2022/04/15 00:35:50;;;;;;;0.10;0.10;;;;;;;;;;5135523;27;20027;-75
2022/04/15 00:38:16;;;;;;;0.10;0.10;;;;;;;;;;5117514;27;20019;-75
2022/04/15 00:40:42;;;;;;;0.10;0.10;;;;;;;;;;5135049;27;20095;-75
2022/04/15 00:43:09;;;;;;;0.10;0.10;;;;;;;;;;5135476;27;20023;-75
2022/04/15 00:45:35;;;;;;;0.10;0.10;;;;;;;;;;5135224;27;20031;-75
2022/04/15 00:48:01;;;;;;;0.10;0.10;;;;;;;;;;5135384;27;20027;-75
2022/04/15 00:50:27;;;;;;;0.10;0.10;;;;;;;;;;5116480;27;20073;-75
2022/04/15 00:52:54;;;;;;;0.10;0.10;;;;;;;;;;5135286;27;20470;-76
2022/04/15 00:55:22;;;;;;;0.10;0.10;;;;;;;;;;5134812;27;20094;-75
2022/04/15 00:57:55;;;;;;;0.13;0.13;;;;;;;;;;5135125;27;20137;-75
2022/04/15 01:00:22;;;;;;;0.10;0.10;;;;;;;;;;5134870;27;20050;-75
2022/04/15 01:02:48;;;;;;;0.10;0.10;;;;;;;;;;5116729;27;20024;-75
2022/04/15 01:05:15;;;;;;;0.10;0.10;;;;;;;;;;5117017;27;20390;-75
2022/04/15 01:07:42;;;;;;;0.10;0.10;;;;;;;;;;5116206;27;20069;-75
2022/04/15 01:10:10;;;;;;;0.10;0.10;;;;;;;;;;5134898;27;20038;-75
2022/04/15 01:12:45;;;;;;;0.10;0.10;;;;;;;;;;5134653;27;20031;-75
2022/04/15 01:15:13;;;;;;;0.10;0.10;;;;;;;;;;5116466;27;20417;-75
2022/04/15 01:17:39;;;;;;;0.10;0.10;;;;;;;;;;5134465;27;20035;-75
2022/04/15 01:20:07;;;;;;;0.15;0.15;;;;;;;;;;5134707;27;20031;-75
2022/04/15 01:22:37;;;;;;;0.10;0.10;;;;;;;;;;5116087;27;20119;-76
2022/04/15 01:25:04;;;;;;;0.10;0.10;;;;;;;;;;5134133;27;20023;-75
2022/04/15 01:27:33;;;;;;;0.10;0.10;;;;;;;;;;5134414;27;20124;-75
2022/04/15 01:29:59;;;;;;;0.10;0.10;;;;;;;;;;5116360;27;20106;-75
2022/04/15 01:32:25;;;;;;;0.10;0.10;;;;;;;;;;5134334;27;20100;-75
2022/04/15 01:34:51;;;;;;;0.10;0.10;;;;;;;;;;5134459;27;20156;-75
2022/04/15 01:37:20;;;;;;;0.10;0.10;;;;;;;;;;5134757;27;20023;-75
2022/04/15 01:39:47;;;;;;;0.10;0.10;;;;;;;;;;5134604;27;20110;-75
2022/04/15 01:42:16;;;;;;;0.10;0.10;;;;;;;;;;5134486;27;20488;-75
2022/04/15 01:44:43;;;;;;;0.10;0.10;;;;;;;;;;5115703;27;20019;-75
2022/04/15 01:47:10;;;;;;;0.10;0.10;;;;;;;;;;5134215;27;20019;-75
2022/04/15 01:49:36;;;;;;;0.20;0.20;;;;;;;;;;5133826;27;20031;-75
2022/04/15 01:52:02;;;;;;;0.10;0.10;;;;;;;;;;5115740;27;20027;-75
2022/04/15 01:54:28;;;;;;;0.10;0.10;;;;;;;;;;5133929;27;20505;-75
2022/04/15 01:56:54;;;;;;;0.20;0.20;;;;;;;;;;5134009;27;20101;-75
2022/04/15 01:59:20;;;;;;;0.10;0.10;;;;;;;;;;5133598;27;20054;-75
2022/04/15 02:01:49;;;;;;;0.10;0.10;;;;;;;;;;5134235;27;20039;-75
2022/04/15 02:04:15;;;;;;;0.10;0.10;;;;;;;;;;5115758;27;20106;-75
2022/04/15 02:06:41;;;;;;;0.10;0.10;;;;;;;;;;5133579;27;20054;-75
2022/04/15 02:09:07;;;;;;;0.10;0.10;;;;;;;;;;5115292;27;20050;-75
2022/04/15 02:11:34;;;;;;;0.10;0.10;;;;;;;;;;5115011;27;20027;-75
2022/04/15 02:14:00;;;;;;;0.10;0.10;;;;;;;;;;5115335;27;20453;-75
2022/04/15 02:16:26;;;;;;;0.10;0.10;;;;;;;;;;5133405;27;20156;-75
2022/04/15 02:18:52;;;;;;;0.10;0.10;;;;;;;;;;5133507;27;20171;-75
2022/04/15 02:21:18;;;;;;;0.10;0.10;;;;;;;;;;5115188;27;20462;-76
2022/04/15 02:23:44;;;;;;;0.10;0.10;;;;;;;;;;5115415;27;20012;-75
2022/04/15 02:26:10;;;;;;;0.10;0.10;;;;;;;;;;5114944;27;20033;-75
2022/04/15 02:28:36;;;;;;;0.10;0.10;;;;;;;;;;5114787;27;20514;-75
2022/04/15 02:31:02;;;;;;;0.10;0.10;;;;;;;;;;5114862;27;20023;-75
2022/04/15 02:33:28;;;;;;;0.10;0.10;;;;;;;;;;5132922;27;20030;-75
2022/04/15 02:35:55;;;;;;;0.10;0.10;;;;;;;;;;5113799;27;20114;-75
2022/04/15 02:38:21;;;;;;;0.10;0.10;;;;;;;;;;5132979;27;20062;-75
2022/04/15 02:40:47;;;;;;;0.10;0.10;;;;;;;;;;5133469;27;20100;-75
2022/04/15 02:43:13;;;;;;;0.10;0.10;;;;;;;;;;5133327;27;20023;-75
2022/04/15 02:45:39;;;;;;;0.10;0.10;;;;;;;;;;5132676;27;20055;-75
2022/04/15 02:48:05;;;;;;;0.10;0.10;;;;;;;;;;5114584;27;20019;-75
2022/04/15 02:50:31;;;;;;;0.10;0.10;;;;;;;;;;5132599;27;20092;-75
2022/04/15 02:52:59;;;;;;;0.10;0.10;;;;;;;;;;5133263;27;20414;-75
2022/04/15 02:55:26;;;;;;;0.10;0.10;;;;;;;;;;5132669;27;20058;-75
2022/04/15 02:57:52;;;;;;;0.10;0.10;;;;;;;;;;5114442;27;20012;-75
2022/04/15 03:00:18;;;;;;;0.10;0.10;;;;;;;;;;5132377;27;20064;-75
2022/04/15 03:02:44;;;;;;;0.10;0.10;;;;;;;;;;5132826;27;20031;-75
2022/04/15 03:05:11;;;;;;;0.10;0.10;;;;;;;;;;5132564;27;20051;-75
2022/04/15 03:07:37;;;;;;;0.10;0.10;;;;;;;;;;5132605;27;20027;-75
2022/04/15 03:10:04;;;;;;;0.10;0.10;;;;;;;;;;5132656;27;20019;-75
2022/04/15 03:12:34;;;;;;;0.10;0.10;;;;;;;;;;5132375;27;20027;-75
2022/04/15 03:15:00;;;;;;;0.10;0.10;;;;;;;;;;5097198;27;20026;-75
2022/04/15 03:17:26;;;;;;;0.20;0.20;;;;;;;;;;5132373;27;20019;-75
2022/04/15 03:19:52;;;;;;;0.20;0.20;;;;;;;;;;5132448;27;20035;-75
2022/04/15 03:22:18;;;;;;;0.20;0.20;;;;;;;;;;5113872;27;20370;-75
2022/04/15 03:24:44;;;;;;;0.10;0.10;;;;;;;;;;5114548;27;20066;-75
2022/04/15 03:27:10;;;;;;;0.10;0.10;;;;;;;;;;5130947;27;20019;-75
2022/04/15 03:29:36;;;;;;;0.10;0.10;;;;;;;;;;5131838;27;20044;-76
2022/04/15 03:32:03;;;;;;;0.10;0.10;;;;;;;;;;5113799;27;20431;-75
2022/04/15 03:34:29;;;;;;;0.08;0.08;;;;;;;;;;5113648;27;20470;-75
2022/04/15 03:36:55;;;;;;;0.10;0.10;;;;;;;;;;5113991;27;20068;-75
2022/04/15 03:39:21;;;;;;;0.10;0.10;;;;;;;;;;5132115;27;20079;-75
2022/04/15 03:41:47;;;;;;;0.30;0.30;;;;;;;;;;5132060;27;20399;-75
2022/04/15 03:44:13;;;;;;;0.10;0.10;;;;;;;;;;5132174;27;20491;-75
2022/04/15 03:46:40;;;;;;;0.10;0.10;;;;;;;;;;5113369;27;20044;-75
2022/04/15 03:49:06;;;;;;;0.10;0.10;;;;;;;;;;5131840;27;20024;-75
2022/04/15 03:51:32;;;;;;;0.10;0.10;;;;;;;;;;5131798;27;20042;-75
2022/04/15 03:53:58;;;;;;;0.20;0.20;;;;;;;;;;5113642;28;20061;-75
2022/04/15 03:56:24;;;;;;;0.20;0.20;;;;;;;;;;5131728;27;20035;-75
2022/04/15 03:58:50;;;;;;;0.10;0.10;;;;;;;;;;5113453;27;20027;-75
2022/04/15 04:01:16;;;;;;;0.10;0.10;;;;;;;;;;5132294;27;20031;-75
2022/04/15 04:03:42;;;;;;;0.10;0.10;;;;;;;;;;5131684;27;20023;-75
2022/04/15 04:06:08;;;;;;;0.10;0.10;;;;;;;;;;5131788;27;20047;-75
2022/04/15 04:08:34;;;;;;;0.10;0.10;;;;;;;;;;5113141;28;20058;-75
2022/04/15 04:11:00;;;;;;;0.10;0.10;;;;;;;;;;5131681;27;20027;-75
2022/04/15 04:13:26;;;;;;;0.10;0.10;;;;;;;;;;5131462;28;20467;-75
2022/04/15 04:15:52;;;;;;;0.10;0.10;;;;;;;;;;5131751;27;20050;-75
2022/04/15 04:18:21;;;;;;;0.10;0.10;;;;;;;;;;5113408;28;20027;-75
2022/04/15 04:20:46;;;;;;;0.10;0.10;;;;;;;;;;5131720;28;20038;-75
2022/04/15 04:23:12;;;;;;;0.10;0.10;;;;;;;;;;5131688;28;20019;-75
2022/04/15 04:25:39;;;;;;;0.10;0.10;;;;;;;;;;5131347;27;20039;-75
2022/04/15 04:28:05;;;;;;;0.13;0.13;;;;;;;;;;5131637;27;20076;-75
2022/04/15 04:30:31;;;;;;;0.10;0.10;;;;;;;;;;5131360;27;20031;-75
2022/04/15 04:32:59;;;;;;;0.10;0.10;;;;;;;;;;5131633;27;20038;-75
2022/04/15 04:35:25;;;;;;;0.10;0.10;;;;;;;;;;5112870;28;20107;-76
2022/04/15 04:37:51;;;;;;;0.10;0.10;;;;;;;;;;5113141;28;20060;-75
2022/04/15 04:40:17;;;;;;;0.10;0.10;;;;;;;;;;5131642;27;20077;-76
2022/04/15 04:42:45;;;;;;;0.10;0.10;;;;;;;;;;5130001;27;20483;-75
2022/04/15 04:45:11;;;;;;;0.10;0.10;;;;;;;;;;5099876;28;20126;-75
2022/04/15 04:47:39;;;;;;;0.10;0.10;;;;;;;;;;5092566;28;20019;-76
2022/04/15 04:50:08;;;;;;;0.10;0.10;;;;;;;;;;5092452;28;20035;-76
2022/04/15 04:52:34;;;;;;;0.17;0.17;;;;;;;;;;5114745;28;20417;-76
2022/04/15 04:55:00;;;;;;;0.10;0.10;;;;;;;;;;5131260;28;20462;-75
2022/04/15 04:57:26;;;;;;;0.10;0.10;;;;;;;;;;5131122;27;20019;-75
2022/04/15 04:59:52;;;;;;;0.10;0.10;;;;;;;;;;5132841;27;20063;-75
2022/04/15 05:02:18;;;;;;;0.10;0.10;;;;;;;;;;5130858;27;20053;-75
2022/04/15 05:04:44;;;;;;;0.10;0.10;;;;;;;;;;5116478;27;20039;-76
2022/04/15 05:07:10;;;;;;;0.20;0.20;;;;;;;;;;5124885;27;20073;-75
2022/04/15 05:09:41;;;;;;;0.15;0.15;;;;;;;;;;5114260;28;20106;-76
2022/04/15 05:12:08;;;;;;;0.10;0.10;;;;;;;;;;5114459;28;20421;-76
2022/04/15 05:14:34;;;;;;;0.10;0.10;;;;;;;;;;5114087;28;20023;-75
2022/04/15 05:17:00;;;;;;;0.10;0.10;;;;;;;;;;5124497;27;20102;-75
2022/04/15 05:19:26;;;;;;;0.10;0.10;;;;;;;;;;5127865;27;20027;-76
2022/04/15 05:21:53;;;;;;;0.10;0.10;;;;;;;;;;5115929;27;20034;-75
2022/04/15 05:24:19;;;;;;;0.10;0.10;;;;;;;;;;5135029;27;20050;-75
2022/04/15 05:26:45;;;;;;;0.10;0.10;;;;;;;;;;5100402;28;20108;-75
2022/04/15 05:29:11;;;;;;;0.10;0.10;;;;;;;;;;5121304;27;20038;-76
2022/04/15 05:31:37;;;;;;;0.10;0.10;;;;;;;;;;5133075;27;20027;-76
2022/04/15 05:34:06;;;;;;;0.13;0.13;;;;;;;;;;5102831;27;20382;-74
2022/04/15 05:36:32;;;;;;;0.10;0.10;;;;;;;;;;5122093;27;20016;-75
2022/04/15 05:38:58;;;;;;;0.10;0.10;;;;;;;;;;5134040;27;20119;-74
2022/04/15 05:41:24;;;;;;;0.10;0.10;;;;;;;;;;5133258;27;20049;-74
2022/04/15 05:43:50;;;;;;;2.15;2.05;;;;;;;;;;5134461;27;20027;-75
2022/04/15 05:46:16;;;;;;;0.10;0.10;;;;;;;;;;5134288;27;20426;-75
2022/04/15 05:48:42;;;;;;;0.10;0.10;;;;;;;;;;5133955;27;20031;-75
2022/04/15 05:51:09;;;;;;;0.10;0.10;;;;;;;;;;5134177;27;20460;-74
2022/04/15 05:53:35;;;;;;;0.10;0.10;;;;;;;;;;5133951;27;20035;-74
2022/04/15 05:56:01;;;;;;;0.10;0.10;;;;;;;;;;5134128;27;20015;-75
2022/04/15 05:58:27;;;;;;;0.10;0.10;;;;;;;;;;5133819;27;20038;-75
2022/04/15 06:00:54;;;;;;;0.77;0.77;;;;;;;;;;5133454;27;20486;-75
2022/04/15 06:03:20;;;;;;;0.10;0.10;;;;;;;;;;5133949;27;20023;-75
2022/04/15 06:05:47;;;;;;;0.10;0.10;;;;;;;;;;5115449;27;20027;-75
2022/04/15 06:08:13;;;;;;;0.20;0.20;;;;;;;;;;5133703;27;20030;-76
2022/04/15 06:10:39;;;;;;;0.10;0.10;;;;;;;;;;5114730;27;20143;-75
2022/04/15 06:13:19;;;;;;;0.10;0.10;;;;;;;;;;5133894;27;20467;-75
2022/04/15 06:15:53;;;;;;;0.20;0.20;;;;;;;;;;5115051;27;20541;-74
2022/04/15 06:18:21;;;;;;;0.10;0.10;;;;;;;;;;5133967;27;20023;-75
2022/04/15 06:20:48;;;;;;;0.10;0.10;;;;;;;;;;5114146;27;20103;-75
2022/04/15 06:23:14;;;;;;;0.10;0.10;;;;;;;;;;5114855;27;20059;-75
2022/04/15 06:25:40;;;;;;;0.10;0.10;;;;;;;;;;5133165;27;20023;-76
2022/04/15 06:28:07;;;;;;;0.10;0.10;;;;;;;;;;5114926;27;20023;-75
2022/04/15 06:30:33;;;;;;;0.10;0.10;;;;;;;;;;5133078;27;20019;-75
2022/04/15 06:32:59;;;;;;;2.40;1.20;;;;;;;;;;5101755;28;20031;-76
2022/04/15 06:35:25;;;;;;;0.10;0.10;;;;;;;;;;5112476;28;20104;-75
2022/04/15 06:37:52;;;;;;;0.10;0.10;;;;;;;;;;5126754;27;20031;-78
2022/04/15 06:40:18;;;;;;;0.13;0.13;;;;;;;;;;5097493;28;20061;-77
2022/04/15 06:42:43;;;;;;;0.10;0.10;;;;;;;;;;5094155;28;20031;-75
2022/04/15 06:45:12;;;;;;;1.50;1.40;;;;;;;;;;5094459;28;20026;-77
2022/04/15 06:47:38;;;;;;;0.10;0.10;;;;;;;;;;5111927;27;20030;-77
2022/04/15 06:50:07;;;;;;;0.20;0.20;;;;;;;;;;5101283;28;20036;-76
2022/04/15 06:52:34;;;;;;;0.20;0.20;;;;;;;;;;5106993;27;20023;-76
2022/04/15 06:55:00;;;;;;;0.10;0.10;;;;;;;;;;5118164;27;20023;-76
2022/04/15 06:57:25;;;;;;;0.10;0.10;;;;;;;;;;5111050;28;20020;-76
2022/04/15 06:59:51;;;;;;;0.10;0.10;;;;;;;;;;5112380;28;20471;-76
2022/04/15 07:02:18;;;;;;;0.20;0.20;;;;;;;;;;5112675;28;20031;-76
2022/04/15 07:04:44;;;;;;;0.10;0.10;;;;;;;;;;5093616;28;20016;-76
2022/04/15 07:07:10;;;;;;;0.20;0.20;;;;;;;;;;5112102;28;20051;-76
2022/04/15 07:09:36;;;;;;;0.10;0.10;;;;;;;;;;5100878;27;20053;-76
2022/04/15 07:12:02;;;;;;;0.10;0.10;;;;;;;;;;5132084;27;20094;-76
2022/04/15 07:14:29;;;;;;;0.10;0.10;;;;;;;;;;5132346;27;20110;-76
2022/04/15 07:16:55;;;;;;;0.10;0.10;;;;;;;;;;5114306;27;20030;-77
2022/04/15 07:19:21;;;;;;;0.10;0.10;;;;;;;;;;5111408;28;20035;-75
2022/04/15 07:21:47;;;;;;;0.10;0.10;;;;;;;;;;5120740;27;20078;-76
2022/04/15 07:24:13;;;;;;;0.15;0.15;;;;;;;;;;5119462;27;20484;-77
2022/04/15 07:26:39;;;;;;;0.10;0.10;;;;;;;;;;5120466;27;20022;-78
2022/04/15 07:29:05;;;;;;;0.10;0.10;;;;;;;;;;5102162;27;20030;-77
2022/04/15 07:31:32;;;;;;;0.10;0.10;;;;;;;;;;5119111;27;20039;-77
2022/04/15 07:33:59;;;;;;;0.10;0.10;;;;;;;;;;5102546;27;20117;-77
2022/04/15 07:39:00;;;;;;;0.10;0.10;;;;;;;;;;5120171;27;20047;-77
2022/04/15 07:41:26;;;;;;;0.10;0.10;;;;;;;;;;5119416;27;20038;-77
2022/04/15 07:43:52;;;;;;;0.10;0.10;;;;;;;;;;5102464;28;20024;-77
2022/04/15 07:46:18;;;;;;;0.10;0.10;;;;;;;;;;5121087;27;20146;-77
2022/04/15 07:48:44;;;;;;;0.10;0.10;;;;;;;;;;5125403;27;20122;-77
2022/04/15 07:51:10;;;;;;;0.10;0.10;;;;;;;;;;5132131;27;20024;-77
2022/04/15 07:53:37;;;;;;;0.17;0.17;;;;;;;;;;5113447;28;20027;-76
2022/04/15 07:56:03;;;;;;;0.10;0.10;;;;;;;;;;5113647;28;20023;-77
2022/04/15 07:58:29;;;;;;;0.10;0.10;;;;;;;;;;5113362;28;20107;-77
2022/04/15 08:00:55;;;;;;;0.20;0.20;;;;;;;;;;5130769;27;20035;-79
2022/04/15 08:03:21;;;;;;;0.10;0.10;;;;;;;;;;5111466;28;20039;-79
2022/04/15 08:05:47;;;;;;;0.10;0.10;;;;;;;;;;5108465;28;20027;-78
2022/04/15 08:08:13;;;;;;;0.10;0.10;;;;;;;;;;5124543;27;20080;-79
2022/04/15 08:10:40;;;;;;;0.10;0.10;;;;;;;;;;5131542;27;20033;-78
2022/04/15 08:13:06;;;;;;;0.10;0.10;;;;;;;;;;5113462;28;20498;-79
2022/04/15 08:15:32;;;;;;;0.10;0.10;;;;;;;;;;5113102;28;20019;-78
2022/04/15 08:17:58;;;;;;;0.20;0.20;;;;;;;;;;5131881;28;20027;-78
2022/04/15 08:20:24;;;;;;;0.10;0.10;;;;;;;;;;5113092;28;20042;-78
2022/04/15 08:22:50;;;;;;;1.85;1.75;;;;;;;;;;5131780;27;20019;-78
2022/04/15 08:25:16;;;;;;;0.10;0.10;;;;;;;;;;5130977;27;20072;-79
2022/04/15 08:27:42;;;;;;;0.10;0.10;;;;;;;;;;5131136;28;20391;-78
2022/04/15 08:30:08;;;;;;;0.20;0.20;;;;;;;;;;5126600;27;20102;-78
2022/04/15 08:32:34;;;;;;;0.10;0.10;;;;;;;;;;5092485;28;20020;-80
2022/04/15 08:35:01;;;;;;;0.10;0.10;;;;;;;;;;5121948;27;20069;-79
2022/04/15 08:37:27;;;;;;;0.20;0.20;;;;;;;;;;5116342;27;20027;-79
2022/04/15 08:39:53;;;;;;;0.10;0.10;;;;;;;;;;5135270;27;20106;-77
2022/04/15 08:42:20;;;;;;;0.10;0.10;;;;;;;;;;5117397;27;20497;-78
2022/04/15 08:44:50;;;;;;;0.10;0.10;;;;;;;;;;5116930;27;20471;-78
2022/04/15 08:47:16;;;;;;;0.10;0.10;;;;;;;;;;5127552;27;20031;-78
2022/04/15 08:49:42;;;;;;;0.10;0.10;;;;;;;;;;5115256;27;20401;-78
2022/04/15 08:52:12;;;;;;;0.10;0.10;;;;;;;;;;5116563;27;20030;-79
2022/04/15 08:54:38;;;;;;;0.10;0.10;;;;;;;;;;5134860;27;20529;-78
2022/04/15 08:57:05;;;;;;;0.10;0.10;;;;;;;;;;5135151;27;20435;-77
2022/04/15 08:59:31;;;;;;;0.10;0.10;;;;;;;;;;5116550;27;20039;-78
2022/04/15 09:01:57;;;;;;;0.10;0.10;;;;;;;;;;5109268;28;20376;-79
2022/04/15 09:04:24;;;;;;;0.10;0.10;;;;;;;;;;5114431;28;20024;-77
2022/04/15 09:06:56;;;;;;;0.10;0.10;;;;;;;;;;5130074;27;20023;-78
2022/04/15 09:09:29;;;;;;;0.05;0.05;;;;;;;;;;5135523;27;20023;-79
2022/04/15 09:11:56;;;;;;;0.10;0.10;;;;;;;;;;5116460;27;20034;-78
2022/04/15 09:14:23;;;;;;;0.10;0.10;;;;;;;;;;5135319;27;20019;-79
2022/04/15 09:16:49;;;;;;;0.10;0.10;;;;;;;;;;5134030;27;20438;-78
2022/04/15 09:19:15;;;;;;;0.10;0.10;;;;;;;;;;5115521;27;20157;-78
2022/04/15 09:21:52;;;;;;;0.10;0.10;;;;;;;;;;5115908;27;20478;-77
2022/04/15 09:24:26;;;;;;;0.10;0.10;;;;;;;;;;5134450;27;20043;-79
2022/04/15 09:26:53;;;;;;;0.10;0.10;;;;;;;;;;5135145;27;20046;-82
2022/04/15 09:29:21;;;;;;;0.10;0.10;;;;;;;;;;5109009;27;20558;-80
2022/04/15 09:31:47;;;;;;;0.10;0.10;;;;;;;;;;5124102;27;20024;-80
2022/04/15 09:34:13;;;;;;;0.10;0.10;;;;;;;;;;5109756;27;20030;-81
2022/04/15 09:36:40;;;;;;;0.10;0.10;;;;;;;;;;5114014;27;20031;-79
2022/04/15 09:39:11;;;;;;;0.20;0.20;;;;;;;;;;5113739;28;20028;-80
2022/04/15 09:41:38;;;;;;;0.10;0.10;;;;;;;;;;5131176;27;20084;-81
2022/04/15 09:44:04;;;;;;;0.10;0.10;;;;;;;;;;5134405;27;20027;-81
2022/04/15 09:46:31;;;;;;;0.10;0.10;;;;;;;;;;5106317;28;20080;-81
2022/04/15 09:49:03;;;;;;;0.10;0.10;;;;;;;;;;5102939;27;20106;-82
2022/04/15 09:51:51;;;;;;;0.10;0.10;;;;;;;;;;5133901;27;20027;-81
2022/04/15 09:54:22;;;;;;;0.10;0.10;;;;;;;;;;5133722;27;20052;-81
2022/04/15 09:56:48;;;;;;;0.10;0.10;;;;;;;;;;5132222;27;20026;-77
2022/04/15 09:59:15;;;;;;;0.10;0.10;;;;;;;;;;5133039;27;20035;-77
2022/04/15 10:01:44;;;;;;;0.10;0.10;;;;;;;;;;5133745;27;20015;-77
2022/04/15 10:04:10;;;;;;;0.10;0.10;;;;;;;;;;5133231;27;20027;-78
2022/04/15 10:06:38;;;;;;;0.10;0.10;;;;;;;;;;5133046;27;20382;-78
2022/04/15 10:09:10;;;;;;;0.10;0.10;;;;;;;;;;5133264;27;20046;-78
2022/04/15 10:11:37;;;;;;;0.10;0.10;;;;;;;;;;5097280;28;20503;-79
2022/04/15 10:14:03;;;;;;;0.10;0.10;;;;;;;;;;5121254;27;20023;-78
2022/04/15 10:16:30;;;;;;;0.10;0.10;;;;;;;;;;5133532;27;20023;-78
2022/04/15 10:18:59;;;;;;;0.10;0.10;;;;;;;;;;5099236;28;20055;-78
2022/04/15 10:21:25;;;;;;;0.20;0.20;;;;;;;;;;5104947;27;20035;-77
2022/04/15 10:23:52;;;;;;;0.10;0.10;;;;;;;;;;5122743;27;20027;-78
2022/04/15 10:26:19;;;;;;;0.10;0.10;;;;;;;;;;5113335;28;20039;-80
2022/04/15 10:28:47;;;;;;;0.10;0.10;;;;;;;;;;5127255;27;20119;-80
2022/04/15 10:31:16;;;;;;;0.10;0.10;;;;;;;;;;5132746;27;20377;-82
2022/04/15 10:33:43;;;;;;;0.10;0.10;;;;;;;;;;5132755;27;20097;-78
2022/04/15 10:36:17;;;;;;;0.10;0.10;;;;;;;;;;5105322;28;20032;-79
2022/04/15 10:39:09;;;;;;;0.10;0.10;;;;;;;;;;5126428;27;20020;-78
2022/04/15 10:41:42;;;;;;;0.10;0.10;;;;;;;;;;5128621;27;20043;-79
2022/04/15 10:44:11;;;;;;;0.10;0.10;;;;;;;;;;5131946;27;20106;-78
2022/04/15 10:46:37;;;;;;;0.10;0.10;;;;;;;;;;5114411;27;20027;-78
2022/04/15 10:49:19;;;;;;;0.10;0.10;;;;;;;;;;5112632;28;20031;-80
2022/04/15 10:51:45;;;;;;;0.00;0.00;;;;;;;;;;5095027;28;20051;-78
2022/04/15 10:54:30;;;;;;;0.10;0.10;;;;;;;;;;5125058;27;20031;-77
2022/04/15 10:56:58;;;;;;;0.10;0.10;;;;;;;;;;5130135;27;20554;-77
2022/04/15 11:02:20;;;;;;;0.10;0.10;;;;;;;;;;5132571;27;20046;-77
2022/04/15 11:04:50;;;;;;;0.10;0.10;;;;;;;;;;5114612;27;20027;-76
2022/04/15 11:07:17;;;;;;;0.10;0.10;;;;;;;;;;5097427;27;20368;-76
2022/04/15 11:09:43;;;;;;;0.17;0.17;;;;;;;;;;5131980;27;20027;-77
2022/04/15 11:12:11;;;;;;;0.10;0.10;;;;;;;;;;5132637;27;20030;-76
2022/04/15 11:14:38;;;;;;;0.10;0.10;;;;;;;;;;5117463;27;20027;-76
2022/04/15 11:17:09;;;;;;;0.10;0.10;;;;;;;;;;5115162;28;20012;-77
2022/04/15 11:19:36;;;;;;;0.10;0.10;;;;;;;;;;5118495;27;20031;-76
2022/04/15 11:22:02;;;;;;;0.10;0.10;;;;;;;;;;5119837;27;20019;-76
2022/04/15 11:24:30;;;;;;;0.10;0.10;;;;;;;;;;5120717;27;20020;-76
2022/04/15 11:27:03;;;;;;;0.10;0.10;;;;;;;;;;5120867;27;20026;-77
2022/04/15 11:29:34;;;;;;;0.10;0.10;;;;;;;;;;5120196;27;20041;-77
2022/04/15 11:32:00;;;;;;;0.10;0.10;;;;;;;;;;5121163;27;20030;-77
2022/04/15 11:34:27;;;;;;;0.10;0.10;;;;;;;;;;5121641;27;20054;-77
2022/04/15 11:36:56;;;;;;;0.10;0.10;;;;;;;;;;5101656;27;20024;-77
2022/04/15 11:39:23;;;;;;;0.10;0.10;;;;;;;;;;5103322;27;20113;-77
2022/04/15 11:41:52;;;;;;;0.10;0.10;;;;;;;;;;5121013;27;20063;-77
2022/04/15 11:44:18;;;;;;;0.10;0.10;;;;;;;;;;5119609;27;20102;-77
2022/04/15 11:46:46;;;;;;;0.10;0.10;;;;;;;;;;5120540;27;20031;-77
2022/04/15 11:49:16;;;;;;;0.10;0.10;;;;;;;;;;5120860;27;20473;-76
2022/04/15 11:51:46;;;;;;;0.10;0.10;;;;;;;;;;5115220;27;20506;-76
2022/04/15 11:54:12;;;;;;;0.10;0.10;;;;;;;;;;5112124;28;20515;-76
2022/04/15 11:56:39;;;;;;;0.10;0.10;;;;;;;;;;5121355;28;20067;-76
2022/04/15 11:59:08;;;;;;;0.00;0.00;;;;;;;;;;5120310;28;20015;-77
2022/04/15 12:01:34;;;;;;;0.10;0.10;;;;;;;;;;5121425;27;20486;-78
2022/04/15 12:04:01;;;;;;;0.20;0.20;;;;;;;;;;5120399;27;20545;-77
2022/04/15 12:06:29;;;;;;;0.10;0.10;;;;;;;;;;5118609;28;20111;-77
2022/04/15 12:08:56;;;;;;;0.10;0.10;;;;;;;;;;5119359;27;20015;-77
2022/04/15 12:11:24;;;;;;;0.10;0.10;;;;;;;;;;5124726;27;20106;-77
2022/04/15 12:14:00;;;;;;;0.10;0.10;;;;;;;;;;5135042;27;20019;-78
2022/04/15 12:16:28;;;;;;;0.10;0.10;;;;;;;;;;5132344;27;20459;-78
2022/04/15 12:18:56;;;;;;;0.10;0.10;;;;;;;;;;5134035;27;20023;-78
2022/04/15 12:21:22;;;;;;;0.10;0.10;;;;;;;;;;5132830;27;20027;-79
2022/04/15 12:24:03;;;;;;;0.10;0.10;;;;;;;;;;5133396;27;20031;-78
2022/04/15 12:26:40;;;;;;;0.10;0.10;;;;;;;;;;5133003;27;20035;-79
2022/04/15 12:31:50;;;;;;;0.10;0.10;;;;;;;;;;5119622;27;20041;-79
2022/04/15 12:34:17;;;;;;;0.10;0.10;;;;;;;;;;5135395;27;20102;-78
2022/04/15 12:36:44;;;;;;;0.10;0.10;;;;;;;;;;5135015;27;20035;-78
2022/04/15 12:39:10;;;;;;;0.10;0.10;;;;;;;;;;5134461;27;20011;-79
2022/04/15 12:41:40;;;;;;;0.10;0.10;;;;;;;;;;5135257;27;20031;-78
2022/04/15 12:44:14;;;;;;;0.10;0.10;;;;;;;;;;5134828;27;20019;-78
2022/04/15 12:46:42;;;;;;;0.10;0.10;;;;;;;;;;5134440;27;20486;-78
2022/04/15 12:49:21;;;;;;;0.10;0.10;;;;;;;;;;5134691;27;20486;-78
2022/04/15 12:51:48;;;;;;;0.10;0.10;;;;;;;;;;5134186;27;20031;-77
2022/04/15 12:54:14;;;;;;;0.10;0.10;;;;;;;;;;5134918;27;20083;-77
2022/04/15 12:56:52;;;;;;;0.10;0.10;;;;;;;;;;5133713;27;20031;-78
2022/04/15 12:59:18;;;;;;;0.10;0.10;;;;;;;;;;5135775;27;20061;-77
2022/04/15 13:01:44;;;;;;;0.10;0.10;;;;;;;;;;5134220;27;20153;-77
2022/04/15 13:04:14;;;;;;;0.10;0.10;;;;;;;;;;5134394;27;20059;-77
2022/04/15 13:06:40;;;;;;;0.10;0.10;;;;;;;;;;5111413;27;21330;-77
2022/04/15 13:09:06;;;;;;;0.10;0.10;;;;;;;;;;5134143;27;20023;-77
2022/04/15 13:11:32;;;;;;;0.10;0.10;;;;;;;;;;5115842;27;20113;-77
2022/04/15 13:13:59;;;;;;;0.10;0.10;;;;;;;;;;5115746;27;20027;-77
2022/04/15 13:16:25;;;;;;;0.10;0.10;;;;;;;;;;5134170;27;20031;-77
2022/04/15 13:18:51;;;;;;;0.10;0.10;;;;;;;;;;5116370;27;20443;-77
2022/04/15 13:21:17;;;;;;;0.10;0.10;;;;;;;;;;5122740;27;20032;-78
2022/04/15 13:23:43;;;;;;;0.10;0.10;;;;;;;;;;5134773;27;20577;-77
2022/04/15 13:26:09;;;;;;;0.10;0.10;;;;;;;;;;5135056;27;20118;-76
2022/04/15 13:28:36;;;;;;;0.10;0.10;;;;;;;;;;5133507;27;20094;-76
2022/04/15 13:31:02;;;;;;;0.10;0.10;;;;;;;;;;5115520;27;20490;-77
2022/04/15 13:33:28;;;;;;;0.10;0.10;;;;;;;;;;5133277;27;20027;-78
2022/04/15 13:35:54;;;;;;;0.10;0.10;;;;;;;;;;5128432;27;20037;-77
2022/04/15 13:38:20;;;;;;;0.13;0.13;;;;;;;;;;5134005;27;20463;-77
2022/04/15 13:40:46;;;;;;;0.10;0.10;;;;;;;;;;5140979;27;20030;-77
2022/04/15 13:43:12;;;;;;;0.10;0.10;;;;;;;;;;5140790;27;20442;-76
2022/04/15 13:45:38;;;;;;;0.10;0.10;;;;;;;;;;5133422;27;20027;-77
2022/04/15 13:48:04;;;;;;;0.10;0.10;;;;;;;;;;5132345;27;20517;-77
2022/04/15 13:50:30;;;;;;;0.10;0.10;;;;;;;;;;5115045;27;20031;-77
2022/04/15 13:58:26;;;;;;;0.10;0.10;;;;;;;;;;5133153;27;20505;-76
2022/04/15 14:00:52;;;;;;;0.10;0.10;;;;;;;;;;5132308;27;20031;-77
2022/04/15 14:03:18;;;;;;;0.10;0.10;;;;;;;;;;5096675;27;20436;-77
2022/04/15 14:05:46;;;;;;;0.10;0.10;;;;;;;;;;5113608;27;20483;-77
2022/04/15 14:08:13;;;;;;;0.10;0.10;;;;;;;;;;5113643;27;20038;-77
2022/04/15 14:10:39;;;;;;;0.10;0.10;;;;;;;;;;5133255;27;20038;-77
2022/04/15 14:13:05;;;;;;;0.10;0.10;;;;;;;;;;5133934;27;20500;-77
2022/04/15 14:15:31;;;;;;;0.10;0.10;;;;;;;;;;5133100;27;20033;-77
2022/04/15 14:17:59;;;;;;;0.10;0.10;;;;;;;;;;5132734;27;20051;-77
2022/04/15 14:20:26;;;;;;;0.00;0.00;;;;;;;;;;5132989;27;20084;-77
2022/04/15 14:22:52;;;;;;;0.10;0.10;;;;;;;;;;5113576;27;20038;-78
2022/04/15 14:25:18;;;;;;;0.10;0.10;;;;;;;;;;5132962;27;20031;-77
2022/04/15 14:27:46;;;;;;;0.10;0.10;;;;;;;;;;5132446;27;20450;-77
2022/04/15 14:30:12;;;;;;;0.10;0.10;;;;;;;;;;5108828;27;20397;-76
2022/04/15 14:32:38;;;;;;;0.10;0.10;;;;;;;;;;5130724;27;20058;-77
2022/04/15 14:35:04;;;;;;;0.10;0.10;;;;;;;;;;5134165;27;20022;-77
2022/04/15 14:37:30;;;;;;;0.10;0.10;;;;;;;;;;5136377;27;20027;-77
2022/04/15 14:39:56;;;;;;;0.10;0.10;;;;;;;;;;5133479;27;20041;-78
2022/04/15 14:42:23;;;;;;;0.10;0.10;;;;;;;;;;5147193;27;20470;-77
2022/04/15 14:44:49;;;;;;;0.10;0.10;;;;;;;;;;5133183;27;20019;-77
2022/04/15 14:47:15;;;;;;;0.10;0.10;;;;;;;;;;5132140;27;20023;-77
2022/04/15 14:49:42;;;;;;;0.10;0.10;;;;;;;;;;5130677;27;20109;-77
2022/04/15 14:52:08;;;;;;;0.10;0.10;;;;;;;;;;5132289;27;20027;-77
2022/04/15 14:54:34;;;;;;;0.10;0.10;;;;;;;;;;5132117;27;20023;-76
2022/04/15 14:57:01;;;;;;;0.10;0.10;;;;;;;;;;5133277;27;20058;-77